createdAt,value
2023-03-26T00:01:11.936Z,512.00
2023-03-26T00:05:11.961Z,508.00
2023-03-26T00:09:11.940Z,510.00
2023-03-26T00:13:11.963Z,509.00
2023-03-26T00:17:11.967Z,510.00
2023-03-26T00:21:11.962Z,514.00
2023-03-26T00:25:13.518Z,523.00
2023-03-26T00:29:12.316Z,519.00
2023-03-26T00:33:12.567Z,517.00
2023-03-26T00:37:12.567Z,506.00
2023-03-26T00:41:12.577Z,510.00
2023-03-26T00:45:12.618Z,505.00
2023-03-26T00:49:12.583Z,506.00
2023-03-26T00:53:12.589Z,511.00
2023-03-26T00:57:14.919Z,512.00
2023-03-26T01:01:13.787Z,512.00
2023-03-26T01:05:12.685Z,509.00
2023-03-26T01:09:12.863Z,510.00
2023-03-26T01:13:12.848Z,507.00
2023-03-26T01:17:12.850Z,501.00
2023-03-26T01:21:12.848Z,502.00
2023-03-26T01:25:12.848Z,507.00
2023-03-26T01:29:12.880Z,506.00
2023-03-26T01:33:12.932Z,503.00
2023-03-26T01:37:12.893Z,512.00
2023-03-26T01:41:13.058Z,508.00
2023-03-26T01:45:12.897Z,512.00
2023-03-26T01:49:13.263Z,512.00
2023-03-26T01:53:12.990Z,509.00
2023-03-26T01:57:13.022Z,502.00
2023-03-26T02:01:13.017Z,508.00
2023-03-26T02:05:13.038Z,503.00
2023-03-26T02:09:13.030Z,502.00
2023-03-26T02:13:13.083Z,507.00
2023-03-26T02:17:13.024Z,512.00
2023-03-26T02:21:13.029Z,506.00
2023-03-26T02:25:13.011Z,511.00
2023-03-26T02:29:13.085Z,511.00
2023-03-26T02:33:13.078Z,509.00
2023-03-26T02:37:13.073Z,513.00
2023-03-26T02:41:13.078Z,509.00
2023-03-26T02:45:13.049Z,504.00
2023-03-26T02:49:13.044Z,511.00
2023-03-26T02:53:13.001Z,514.00
2023-03-26T02:57:13.025Z,514.00
2023-03-26T03:01:13.000Z,511.00
2023-03-26T03:05:12.955Z,505.00
2023-03-26T03:09:13.096Z,500.00
2023-03-26T03:13:13.081Z,505.00
2023-03-26T03:17:13.076Z,509.00
2023-03-26T03:21:13.593Z,512.00
2023-03-26T03:25:13.043Z,512.00
2023-03-26T03:29:13.090Z,506.00
2023-03-26T03:33:13.020Z,504.00
2023-03-26T03:37:13.014Z,507.00
2023-03-26T03:41:13.002Z,506.00
2023-03-26T03:45:12.999Z,505.00
2023-03-26T03:49:13.114Z,503.00
2023-03-26T03:53:13.111Z,500.00
2023-03-26T03:57:13.220Z,501.00
2023-03-26T04:01:13.101Z,501.00
2023-03-26T04:05:13.094Z,506.00
2023-03-26T04:09:13.086Z,499.00
2023-03-26T04:13:13.076Z,496.00
2023-03-26T04:17:13.071Z,493.00
2023-03-26T04:21:13.076Z,497.00
2023-03-26T04:25:13.082Z,499.00
2023-03-26T04:29:13.234Z,500.00
2023-03-26T04:33:13.235Z,498.00
2023-03-26T04:37:13.244Z,504.00
2023-03-26T04:41:13.234Z,504.00
2023-03-26T04:45:13.233Z,498.00
2023-03-26T04:49:13.229Z,501.00
2023-03-26T04:53:13.212Z,501.00
2023-03-26T04:57:13.211Z,501.00
2023-03-26T05:01:13.248Z,504.00
2023-03-26T05:05:13.631Z,499.00
2023-03-26T05:09:13.318Z,500.00
2023-03-26T05:13:13.302Z,506.00
2023-03-26T05:17:13.302Z,501.00
2023-03-26T05:21:13.282Z,500.00
2023-03-26T05:25:13.264Z,503.00
2023-03-26T05:29:13.249Z,505.00
2023-03-26T05:33:13.337Z,503.00
2023-03-26T05:37:13.316Z,500.00
2023-03-26T05:41:13.357Z,496.00
2023-03-26T05:45:13.276Z,498.00
2023-03-26T05:49:13.325Z,501.00
2023-03-26T05:53:13.544Z,497.00
2023-03-26T05:57:13.776Z,498.00
2023-03-26T06:01:13.983Z,496.00
2023-03-26T06:05:13.980Z,496.00
2023-03-26T06:09:13.995Z,500.00
2023-03-26T06:13:13.983Z,499.00
2023-03-26T06:17:13.995Z,500.00
2023-03-26T06:21:13.984Z,490.00
2023-03-26T06:25:13.961Z,489.00
2023-03-26T06:29:13.980Z,494.00
2023-03-26T06:33:13.937Z,495.00
2023-03-26T06:37:14.169Z,497.00
2023-03-26T06:41:14.054Z,495.00
2023-03-26T06:45:14.056Z,488.00
2023-03-26T06:49:14.125Z,494.00
2023-03-26T06:53:14.013Z,504.00
2023-03-26T06:57:14.026Z,500.00
2023-03-26T07:01:13.991Z,500.00
2023-03-26T07:05:13.946Z,501.00
2023-03-26T07:09:13.911Z,502.00
2023-03-26T07:13:13.908Z,503.00
2023-03-26T07:17:13.876Z,500.00
2023-03-26T07:21:14.032Z,504.00
2023-03-26T07:25:13.953Z,502.00
2023-03-26T07:29:13.910Z,499.00
2023-03-26T07:33:13.898Z,493.00
2023-03-26T07:37:13.875Z,500.00
2023-03-26T07:41:13.876Z,497.00
2023-03-26T07:45:13.835Z,495.00
2023-03-26T07:49:13.807Z,498.00
2023-03-26T07:53:13.794Z,495.00
2023-03-26T07:57:13.801Z,494.00
2023-03-26T08:01:13.770Z,497.00
2023-03-26T08:05:14.018Z,497.00
2023-03-26T08:09:14.084Z,496.00
2023-03-26T08:13:14.220Z,495.00
2023-03-26T08:17:14.336Z,492.00
2023-03-26T08:21:14.468Z,493.00
2023-03-26T08:25:14.601Z,491.00
2023-03-26T08:29:14.735Z,492.00
2023-03-26T08:33:14.881Z,501.00
2023-03-26T08:37:14.993Z,501.00
2023-03-26T08:41:15.260Z,496.00
2023-03-26T08:45:15.282Z,497.00
2023-03-26T08:49:15.437Z,496.00
2023-03-26T08:53:15.588Z,494.00
2023-03-26T08:57:15.852Z,500.00
2023-03-26T09:01:16.215Z,494.00
2023-03-26T09:05:16.115Z,490.00
2023-03-26T09:09:18.900Z,492.00
2023-03-26T09:13:16.261Z,495.00
2023-03-26T09:17:16.718Z,491.00
2023-03-26T09:21:16.222Z,490.00
2023-03-26T09:25:16.752Z,487.00
2023-03-26T09:29:16.209Z,487.00
2023-03-26T09:33:16.172Z,487.00
2023-03-26T09:37:16.173Z,482.00
2023-03-26T09:41:16.153Z,486.00
2023-03-26T09:45:16.135Z,492.00
2023-03-26T09:49:16.731Z,489.00
2023-03-26T09:53:16.106Z,485.00
2023-03-26T09:57:16.259Z,480.00
2023-03-26T10:01:16.150Z,479.00
2023-03-26T10:05:16.293Z,477.00
2023-03-26T10:09:16.744Z,475.00
2023-03-26T10:13:16.676Z,474.00
2023-03-26T10:17:16.857Z,479.00
2023-03-26T10:21:17.044Z,481.00
2023-03-26T10:25:17.227Z,475.00
2023-03-26T10:29:17.391Z,475.00
2023-03-26T10:33:17.575Z,471.00
2023-03-26T10:37:17.748Z,471.00
2023-03-26T10:41:17.929Z,469.00
2023-03-26T10:45:18.117Z,469.00
2023-03-26T10:49:18.264Z,475.00
2023-03-26T10:53:18.451Z,476.00
2023-03-26T10:57:18.632Z,480.00
2023-03-26T11:01:18.801Z,479.00
2023-03-26T11:05:18.961Z,472.00
2023-03-26T11:09:19.108Z,470.00
2023-03-26T11:13:19.280Z,468.00
2023-03-26T11:17:40.008Z,472.00
2023-03-26T11:21:20.904Z,478.00
2023-03-26T11:25:19.428Z,473.00
2023-03-26T11:29:31.230Z,481.00
2023-03-26T11:33:20.433Z,475.00
2023-03-26T11:37:19.406Z,473.00
2023-03-26T11:41:22.823Z,473.00
2023-03-26T11:45:19.467Z,471.00
2023-03-26T11:49:19.458Z,472.00
2023-03-26T11:53:19.458Z,475.00
2023-03-26T11:57:19.453Z,472.00
2023-03-26T12:01:19.420Z,467.00
2023-03-26T12:05:19.429Z,474.00
2023-03-26T12:09:19.384Z,477.00
2023-03-26T12:13:19.374Z,478.00
2023-03-26T12:17:19.507Z,480.00
2023-03-26T12:21:20.506Z,468.00
2023-03-26T12:25:19.487Z,471.00
2023-03-26T12:29:19.606Z,469.00
2023-03-26T12:33:19.654Z,470.00
2023-03-26T12:37:19.785Z,467.00
2023-03-26T12:44:47.835Z,469.00
2023-03-26T12:45:20.529Z,471.00
2023-03-26T12:49:19.568Z,470.00
2023-03-26T12:53:19.735Z,473.00
2023-03-26T12:57:19.771Z,474.00
2023-03-26T13:01:19.805Z,468.00
2023-03-26T13:05:19.798Z,466.00
2023-03-26T13:09:19.694Z,463.00
2023-03-26T13:13:19.669Z,467.00
2023-03-26T13:17:19.810Z,470.00
2023-03-26T13:21:19.667Z,469.00
2023-03-26T13:25:19.676Z,471.00
2023-03-26T13:29:19.693Z,472.00
2023-03-26T13:33:19.713Z,471.00
2023-03-26T13:37:19.718Z,470.00
2023-03-26T13:41:19.705Z,471.00
2023-03-26T13:45:19.689Z,471.00
2023-03-26T13:49:19.686Z,466.00
2023-03-26T13:53:19.663Z,466.00
2023-03-26T13:57:19.722Z,472.00
2023-03-26T14:01:19.688Z,471.00
2023-03-26T14:05:19.625Z,466.00
2023-03-26T14:09:19.826Z,465.00
2023-03-26T14:13:19.561Z,459.00
2023-03-26T14:17:19.533Z,464.00
2023-03-26T14:21:19.754Z,466.00
2023-03-26T14:25:19.981Z,463.00
2023-03-26T14:29:20.163Z,460.00
2023-03-26T14:33:27.365Z,456.00
2023-03-26T14:37:27.013Z,459.00
2023-03-26T14:41:21.067Z,464.00
2023-03-26T14:45:20.060Z,469.00
2023-03-26T14:49:20.022Z,466.00
2023-03-26T14:53:20.012Z,469.00
2023-03-26T14:57:19.985Z,463.00
2023-03-26T15:01:19.975Z,462.00
2023-03-26T15:05:20.234Z,464.00
2023-03-26T15:09:20.158Z,454.00
2023-03-26T15:13:20.146Z,458.00
2023-03-26T15:17:20.157Z,458.00
2023-03-26T15:21:20.123Z,461.00
2023-03-26T15:25:20.123Z,464.00
2023-03-26T15:29:20.106Z,465.00
2023-03-26T15:33:20.100Z,466.00
2023-03-26T15:37:20.168Z,470.00
2023-03-26T15:41:20.082Z,466.00
2023-03-26T15:45:20.209Z,468.00
2023-03-26T15:49:20.210Z,466.00
2023-03-26T15:53:20.196Z,471.00
2023-03-26T15:57:20.287Z,469.00
2023-03-26T16:01:20.210Z,464.00
2023-03-26T16:05:20.209Z,461.00
2023-03-26T16:09:20.169Z,467.00
2023-03-26T16:13:20.188Z,461.00
2023-03-26T16:17:20.102Z,461.00
2023-03-26T16:21:32.066Z,459.00
2023-03-26T16:25:27.763Z,460.00
2023-03-26T16:29:21.136Z,463.00
2023-03-26T16:33:20.273Z,463.00
2023-03-26T16:37:20.036Z,465.00
2023-03-26T16:41:20.008Z,466.00
2023-03-26T16:45:19.990Z,462.00
2023-03-26T16:49:19.978Z,469.00
2023-03-26T16:53:20.083Z,459.00
2023-03-26T16:57:20.888Z,459.00
2023-03-26T17:01:20.764Z,458.00
2023-03-26T17:05:20.736Z,460.00
2023-03-26T17:09:20.959Z,461.00
2023-03-26T17:13:20.952Z,457.00
2023-03-26T17:17:20.978Z,459.00
2023-03-26T17:21:20.919Z,457.00
2023-03-26T17:25:20.914Z,457.00
2023-03-26T17:29:20.903Z,460.00
2023-03-26T17:33:20.866Z,459.00
2023-03-26T17:37:20.870Z,459.00
2023-03-26T17:41:20.963Z,459.00
2023-03-26T17:45:20.855Z,456.00
2023-03-26T17:49:20.844Z,459.00
2023-03-26T17:53:20.844Z,455.00
2023-03-26T17:57:20.815Z,457.00
2023-03-26T18:01:20.938Z,456.00
2023-03-26T18:05:21.049Z,461.00
2023-03-26T18:09:21.140Z,457.00
2023-03-26T18:13:21.262Z,457.00
2023-03-26T18:17:21.425Z,455.00
2023-03-26T18:21:21.477Z,454.00
2023-03-26T18:25:21.609Z,453.00
2023-03-26T18:29:21.828Z,452.00
2023-03-26T18:33:22.070Z,454.00
2023-03-26T18:37:22.289Z,456.00
2023-03-26T18:41:22.490Z,453.00
2023-03-26T18:45:22.726Z,456.00
2023-03-26T18:49:22.721Z,457.00
2023-03-26T18:53:22.716Z,458.00
2023-03-26T18:57:22.722Z,461.00
2023-03-26T19:01:25.972Z,461.00
2023-03-26T19:05:22.694Z,464.00
2023-03-26T19:09:31.712Z,460.00
2023-03-26T19:13:23.660Z,464.00
2023-03-26T19:17:22.648Z,464.00
2023-03-26T19:21:22.843Z,460.00
2023-03-26T19:25:23.446Z,463.00
2023-03-26T19:29:23.119Z,461.00
2023-03-26T19:33:23.471Z,457.00
2023-03-26T19:37:23.427Z,457.00
2023-03-26T19:41:23.549Z,454.00
2023-03-26T19:45:23.699Z,453.00
2023-03-26T19:49:24.271Z,453.00
2023-03-26T19:53:23.865Z,457.00
2023-03-26T19:57:23.960Z,454.00
2023-03-26T20:01:24.192Z,457.00
2023-03-26T20:05:24.325Z,453.00
2023-03-26T20:09:24.493Z,456.00
2023-03-26T20:13:24.607Z,458.00
2023-03-26T20:17:24.712Z,455.00
2023-03-26T20:21:24.813Z,456.00
2023-03-26T20:25:25.649Z,455.00
2023-03-26T20:29:25.003Z,455.00
2023-03-26T20:33:25.131Z,456.00
2023-03-26T20:37:25.468Z,456.00
2023-03-26T20:41:25.353Z,455.00
2023-03-26T20:45:25.513Z,455.00
2023-03-26T20:49:25.623Z,458.00
2023-03-26T20:53:25.723Z,456.00
2023-03-26T20:57:25.828Z,453.00
2023-03-26T21:01:25.971Z,452.00
2023-03-26T21:05:26.072Z,456.00
2023-03-26T21:09:26.134Z,451.00
2023-03-26T21:13:26.191Z,449.00
2023-03-26T21:17:26.387Z,448.00
2023-03-26T21:21:26.447Z,451.00
2023-03-26T21:25:26.661Z,452.00
2023-03-26T21:29:26.817Z,449.00
2023-03-26T21:33:26.894Z,450.00
2023-03-26T21:37:27.086Z,450.00
2023-03-26T21:41:27.248Z,450.00
2023-03-26T21:45:27.252Z,450.00
2023-03-26T21:49:27.297Z,444.00
2023-03-26T21:53:27.399Z,442.00
2023-03-26T21:57:27.450Z,443.00
2023-03-26T22:01:27.512Z,446.00
2023-03-26T22:05:27.536Z,445.00
2023-03-26T22:09:36.410Z,446.00
2023-03-26T22:13:28.567Z,444.00
2023-03-26T22:17:27.579Z,448.00
2023-03-26T22:21:27.534Z,450.00
2023-03-26T22:25:27.525Z,453.00
2023-03-26T22:29:27.578Z,452.00
2023-03-26T22:33:27.516Z,452.00
2023-03-26T22:37:27.492Z,449.00
2023-03-26T22:41:27.508Z,449.00
2023-03-26T22:45:27.552Z,446.00
2023-03-26T22:49:27.573Z,448.00
2023-03-26T22:53:27.549Z,445.00
2023-03-26T22:57:27.573Z,445.00
2023-03-26T23:01:27.699Z,447.00
2023-03-26T23:05:27.750Z,447.00
2023-03-26T23:09:28.038Z,451.00
2023-03-26T23:13:27.987Z,453.00
2023-03-26T23:17:28.005Z,450.00
2023-03-26T23:21:27.985Z,456.00
2023-03-26T23:25:27.979Z,454.00
2023-03-26T23:29:27.966Z,452.00
2023-03-26T23:33:27.962Z,453.00
2023-03-26T23:37:27.950Z,450.00
2023-03-26T23:41:28.007Z,453.00
2023-03-26T23:45:27.955Z,452.00
2023-03-26T23:49:28.016Z,454.00
2023-03-26T23:53:28.008Z,454.00
2023-03-26T23:57:27.985Z,457.00
